Time;durP1;ratioP1;P1;durP2;ratioP2;P2;SDS_P1;SDS_P2;PMS_P1;PMS_P2;Temp;Humidity;BMP_temperature;BMP_pressure;BME280_temperature;BME280_humidity;BME280_pressure;Samples;Min_cycle;Max_cycle;Signal;HPM_P1;HPM_P2
2022/11/30 00:00:14;;;;;;;32.72;20.02;;;22.10;40.20;;;;;;7710403;22;83386;-65
2022/11/30 00:03:14;;;;;;;30.60;20.83;;;22.10;40.30;;;;;;7710768;22;83202;-64
2022/11/30 00:06:15;;;;;;;29.25;18.80;;;22.10;40.20;;;;;;7714140;22;83688;-65
2022/11/30 00:09:15;;;;;;;32.65;20.95;;;22.10;40.80;;;;;;7707697;22;83165;-65
2022/11/30 00:12:16;;;;;;;32.40;21.17;;;22.10;40.10;;;;;;7710644;22;83175;-63
2022/11/30 00:15:16;;;;;;;32.60;20.23;;;22.10;40.10;;;;;;7710856;22;82685;-62
2022/11/30 00:18:17;;;;;;;34.78;20.90;;;22.10;40.10;;;;;;7713145;22;83162;-63
2022/11/30 00:21:17;;;;;;;28.20;18.40;;;22.10;40.10;;;;;;7710388;22;83700;-65
2022/11/30 00:24:18;;;;;;;30.73;18.58;;;22.10;40.00;;;;;;7710906;22;88821;-64
2022/11/30 00:27:18;;;;;;;28.83;18.38;;;22.10;40.10;;;;;;7709403;22;83385;-64
2022/11/30 00:30:19;;;;;;;29.25;18.67;;;22.10;40.00;;;;;;7685088;22;86013;-63
2022/11/30 00:33:19;;;;;;;30.95;19.13;;;22.10;40.00;;;;;;7684879;22;85417;-61
2022/11/30 00:36:20;;;;;;;27.60;18.02;;;22.10;40.10;;;;;;7710800;22;82938;-62
2022/11/30 00:39:21;;;;;;;26.60;17.10;;;22.10;40.10;;;;;;7711904;22;83778;-62
2022/11/30 00:42:21;;;;;;;25.33;16.85;;;22.10;40.10;;;;;;7712244;22;83350;-64
2022/11/30 00:45:22;;;;;;;25.73;16.38;;;22.10;40.00;;;;;;7710106;22;82799;-64
2022/11/30 00:48:22;;;;;;;26.52;17.73;;;22.10;40.00;;;;;;7711785;22;83078;-63
2022/11/30 00:51:23;;;;;;;25.33;16.92;;;22.00;40.00;;;;;;7713017;22;83482;-59
2022/11/30 00:54:23;;;;;;;25.80;16.90;;;22.00;40.00;;;;;;7710251;22;84005;-60
2022/11/30 00:57:24;;;;;;;24.63;16.13;;;22.00;40.00;;;;;;7712869;22;83069;-59
2022/11/30 01:00:24;;;;;;;26.17;17.63;;;22.00;39.90;;;;;;7712456;22;82733;-60
2022/11/30 01:03:25;;;;;;;23.98;15.82;;;22.00;39.90;;;;;;7709526;22;83690;-59
2022/11/30 01:06:25;;;;;;;23.40;15.88;;;22.00;39.90;;;;;;7713064;22;83580;-60
2022/11/30 01:09:26;;;;;;;23.50;15.90;;;22.00;39.90;;;;;;7709559;22;82761;-64
2022/11/30 01:12:26;;;;;;;25.10;16.20;;;22.00;39.90;;;;;;7711215;22;83171;-63
2022/11/30 01:15:27;;;;;;;23.30;16.25;;;22.00;39.80;;;;;;7710960;22;83233;-64
2022/11/30 01:18:27;;;;;;;23.33;16.25;;;22.00;39.80;;;;;;7708980;22;83562;-64
2022/11/30 01:21:28;;;;;;;24.48;16.38;;;22.00;39.80;;;;;;7710262;22;83581;-64
2022/11/30 01:24:28;;;;;;;25.58;16.88;;;22.00;39.80;;;;;;7710965;22;83686;-64
2022/11/30 01:27:29;;;;;;;21.63;15.00;;;22.00;39.70;;;;;;7710516;22;84129;-69
2022/11/30 01:37:22;;;;;;;23.02;14.45;;;22.00;40.00;;;;;;7674633;22;82668;-68
2022/11/30 01:40:23;;;;;;;22.38;13.73;;;22.00;40.20;;;;;;7712810;22;89062;-68
2022/11/30 01:43:23;;;;;;;19.95;13.60;;;22.00;40.50;;;;;;7712327;22;83106;-67
2022/11/30 01:46:24;;;;;;;20.50;13.40;;;22.00;40.70;;;;;;7711786;22;83056;-68
2022/11/30 01:49:24;;;;;;;20.08;12.82;;;22.00;40.50;;;;;;7713644;22;83392;-69
2022/11/30 01:52:25;;;;;;;18.88;13.13;;;22.00;40.60;;;;;;7711717;22;83024;-70
2022/11/30 01:55:25;;;;;;;19.75;13.07;;;22.00;40.60;;;;;;7711577;22;83076;-68
2022/11/30 01:58:26;;;;;;;17.95;12.57;;;22.00;40.50;;;;;;7713806;22;82907;-68
2022/11/30 02:01:27;;;;;;;19.27;12.80;;;22.00;40.50;;;;;;7683284;22;83441;-69
2022/11/30 02:04:27;;;;;;;19.10;12.43;;;21.90;40.50;;;;;;7715092;22;83060;-64
2022/11/30 02:07:27;;;;;;;21.27;12.15;;;22.00;40.70;;;;;;7711808;22;82983;-64
2022/11/30 02:10:28;;;;;;;19.17;13.00;;;22.00;40.40;;;;;;7712132;22;83526;-65
2022/11/30 02:13:28;;;;;;;17.85;11.38;;;21.90;40.60;;;;;;7709395;22;83397;-64
2022/11/30 02:16:29;;;;;;;19.08;12.05;;;22.00;40.70;;;;;;7712221;22;83562;-63
2022/11/30 02:19:29;;;;;;;16.85;11.70;;;22.00;40.40;;;;;;7714492;22;83900;-63
2022/11/30 02:22:30;;;;;;;16.50;11.30;;;21.90;40.30;;;;;;7712107;22;83412;-60
2022/11/30 02:25:30;;;;;;;16.50;10.13;;;21.90;40.40;;;;;;7712063;22;83592;-59
2022/11/30 02:28:31;;;;;;;16.27;11.02;;;21.90;40.40;;;;;;7713188;22;83072;-59
2022/11/30 02:31:31;;;;;;;15.20;10.73;;;21.90;40.30;;;;;;7710324;22;83090;-59
2022/11/30 02:34:32;;;;;;;16.70;11.48;;;21.90;40.30;;;;;;7709051;22;83117;-59
2022/11/30 02:37:32;;;;;;;16.30;11.38;;;22.00;40.20;;;;;;7683735;22;82781;-59
2022/11/30 02:40:33;;;;;;;13.15;9.52;;;21.90;40.20;;;;;;7713082;22;84590;-65
2022/11/30 02:43:33;;;;;;;13.57;9.75;;;21.90;40.20;;;;;;7717365;22;83119;-64
2022/11/30 02:46:34;;;;;;;16.50;11.45;;;21.90;40.20;;;;;;7712688;22;81447;-64
2022/11/30 02:49:34;;;;;;;17.88;11.13;;;21.90;40.10;;;;;;7711845;22;82723;-64
2022/11/30 02:52:35;;;;;;;17.15;11.40;;;21.90;40.10;;;;;;7713929;22;83324;-63
2022/11/30 02:55:35;;;;;;;15.15;10.98;;;21.90;40.00;;;;;;7710342;22;83949;-63
2022/11/30 02:58:36;;;;;;;16.42;11.32;;;21.90;40.70;;;;;;7711374;22;83437;-64
2022/11/30 03:01:36;;;;;;;17.00;10.80;;;21.90;40.00;;;;;;7710996;22;83077;-64
2022/11/30 03:04:37;;;;;;;16.52;11.70;;;21.90;40.00;;;;;;7712530;22;83194;-63
2022/11/30 03:07:37;;;;;;;18.67;11.70;;;21.90;40.00;;;;;;7710731;22;84476;-63
2022/11/30 03:10:38;;;;;;;17.52;11.85;;;21.90;40.00;;;;;;7706361;22;83687;-64
2022/11/30 03:13:38;;;;;;;19.05;12.27;;;21.90;39.90;;;;;;7712585;22;83394;-64
2022/11/30 03:16:39;;;;;;;16.00;11.45;;;21.90;39.90;;;;;;7711070;22;84519;-64
2022/11/30 03:19:39;;;;;;;16.48;10.88;;;21.90;39.80;;;;;;7711913;22;83643;-63
2022/11/30 03:22:40;;;;;;;16.00;10.98;;;21.90;39.70;;;;;;7714005;22;83683;-65
2022/11/30 03:25:40;;;;;;;15.73;11.15;;;21.90;39.70;;;;;;7710135;22;83934;-63
2022/11/30 03:28:41;;;;;;;16.73;11.30;;;21.90;39.70;;;;;;7710841;22;83150;-63
2022/11/30 03:31:41;;;;;;;13.88;10.18;;;21.90;39.70;;;;;;7686170;22;83066;-63
2022/11/30 03:34:42;;;;;;;14.85;10.02;;;21.90;39.70;;;;;;7710486;22;83031;-63
2022/11/30 03:37:42;;;;;;;15.93;11.38;;;21.90;39.50;;;;;;7712914;22;83230;-63
2022/11/30 03:40:43;;;;;;;15.43;11.18;;;21.90;39.50;;;;;;7710226;22;83139;-63
2022/11/30 03:43:43;;;;;;;16.10;11.15;;;21.90;39.30;;;;;;7714290;22;82711;-62
2022/11/30 03:46:44;;;;;;;15.68;11.98;;;21.90;39.20;;;;;;7709903;22;83627;-62
2022/11/30 03:49:44;;;;;;;16.27;11.23;;;21.90;39.20;;;;;;7710964;22;83247;-62
2022/11/30 03:52:45;;;;;;;16.38;11.10;;;21.90;39.20;;;;;;7710216;22;83535;-63
2022/11/30 03:55:45;;;;;;;15.05;10.70;;;21.90;39.10;;;;;;7714049;22;84076;-59
2022/11/30 03:58:46;;;;;;;14.90;10.63;;;21.90;39.20;;;;;;7709857;22;83745;-60
2022/11/30 04:01:46;;;;;;;14.80;10.77;;;21.90;39.20;;;;;;7706584;22;82889;-59
2022/11/30 04:04:47;;;;;;;15.18;11.95;;;21.90;39.20;;;;;;7712195;22;83076;-59
2022/11/30 04:07:47;;;;;;;14.77;10.48;;;21.80;39.10;;;;;;7710876;22;84456;-59
2022/11/30 04:10:48;;;;;;;12.30;9.65;;;21.90;39.10;;;;;;7710893;22;84377;-59
2022/11/30 04:13:48;;;;;;;14.85;10.70;;;21.90;39.10;;;;;;7715147;22;81648;-60
2022/11/30 04:16:49;;;;;;;15.73;11.40;;;21.90;38.60;;;;;;7711137;22;83067;-60
2022/11/30 04:19:49;;;;;;;16.75;12.63;;;21.90;38.90;;;;;;7712509;22;83372;-59
2022/11/30 04:22:50;;;;;;;17.90;12.60;;;21.90;37.70;;;;;;7710238;22;84086;-59
2022/11/30 04:25:50;;;;;;;18.13;12.27;;;22.00;37.70;;;;;;7711018;22;83475;-59
2022/11/30 04:28:51;;;;;;;17.92;12.35;;;22.00;37.30;;;;;;7712580;22;84154;-59
2022/11/30 04:31:51;;;;;;;18.20;12.05;;;22.10;37.30;;;;;;7710174;22;83267;-64
2022/11/30 04:34:52;;;;;;;16.02;11.68;;;22.10;37.00;;;;;;7711436;22;83038;-65
2022/11/30 04:37:52;;;;;;;16.23;12.27;;;22.10;36.90;;;;;;7709147;22;83140;-69
2022/11/30 04:40:53;;;;;;;18.30;11.75;;;22.20;36.60;;;;;;7711894;22;83312;-62
2022/11/30 04:43:53;;;;;;;20.38;12.48;;;22.30;37.00;;;;;;7712310;22;83105;-66
2022/11/30 04:46:54;;;;;;;18.08;12.57;;;22.30;37.00;;;;;;7711503;22;83869;-67
2022/11/30 04:49:54;;;;;;;19.45;12.48;;;22.40;37.00;;;;;;7710821;22;83094;-69
2022/11/30 04:52:55;;;;;;;18.98;12.13;;;22.40;36.90;;;;;;7711968;22;83213;-67
2022/11/30 04:55:55;;;;;;;16.30;11.88;;;22.40;36.50;;;;;;7711414;22;83007;-65
2022/11/30 04:58:56;;;;;;;18.45;11.73;;;22.50;36.80;;;;;;7683439;22;83599;-64
2022/11/30 05:01:56;;;;;;;17.60;12.50;;;22.50;36.90;;;;;;7682858;22;84706;-68
2022/11/30 05:04:57;;;;;;;17.45;12.43;;;22.60;37.10;;;;;;7709447;22;83410;-67
2022/11/30 05:07:57;;;;;;;20.58;12.48;;;22.60;36.90;;;;;;7681429;22;82923;-62
2022/11/30 05:10:58;;;;;;;17.38;12.02;;;22.60;37.00;;;;;;7711016;22;90495;-62
2022/11/30 05:13:59;;;;;;;20.63;12.88;;;22.60;37.00;;;;;;7686480;22;82689;-66
2022/11/30 05:17:00;;;;;;;18.92;12.57;;;22.60;37.00;;;;;;7682232;22;83107;-64
2022/11/30 05:20:00;;;;;;;19.27;12.20;;;22.60;37.00;;;;;;7710615;22;82929;-63
2022/11/30 05:23:01;;;;;;;17.33;11.93;;;22.70;37.00;;;;;;7710948;22;84716;-64
2022/11/30 05:26:01;;;;;;;17.92;13.15;;;22.70;36.90;;;;;;7682964;22;83217;-63
2022/11/30 05:29:02;;;;;;;16.42;12.20;;;22.70;36.80;;;;;;7707964;22;84535;-61
2022/11/30 05:32:02;;;;;;;16.88;11.82;;;22.80;37.00;;;;;;7712913;22;84175;-64
2022/11/30 05:35:03;;;;;;;17.55;12.10;;;22.80;37.00;;;;;;7712023;22;83312;-65
2022/11/30 05:38:03;;;;;;;16.27;11.05;;;22.80;36.90;;;;;;7708919;22;82901;-63
2022/11/30 05:41:04;;;;;;;19.75;11.93;;;22.80;36.90;;;;;;7709553;22;83262;-65
2022/11/30 05:44:05;;;;;;;16.95;11.85;;;22.80;36.80;;;;;;7708315;22;83444;-59
2022/11/30 05:47:05;;;;;;;16.48;11.77;;;22.80;36.60;;;;;;7709694;22;84026;-64
2022/11/30 05:50:06;;;;;;;17.15;12.00;;;22.80;36.50;;;;;;7682102;22;84337;-63
2022/11/30 05:53:06;;;;;;;21.80;12.75;;;22.90;37.40;;;;;;7709030;22;83054;-60
2022/11/30 05:56:07;;;;;;;18.45;12.20;;;22.90;36.60;;;;;;7710265;22;82734;-60
2022/11/30 05:59:07;;;;;;;22.08;12.23;;;22.90;36.80;;;;;;7709796;22;84299;-64
2022/11/30 06:02:07;;;;;;;20.40;11.93;;;22.80;36.70;;;;;;7706747;22;83792;-62
2022/11/30 06:05:08;;;;;;;18.77;12.23;;;22.80;36.90;;;;;;7712361;22;83769;-71
2022/11/30 06:08:08;;;;;;;15.82;11.32;;;22.80;36.70;;;;;;7708477;22;82985;-72
2022/11/30 06:11:09;;;;;;;18.13;12.15;;;22.80;36.40;;;;;;7710320;22;83492;-72
2022/11/30 06:14:09;;;;;;;19.23;12.55;;;22.80;36.40;;;;;;7710132;22;83224;-72
2022/11/30 06:17:10;;;;;;;15.65;11.90;;;22.70;36.40;;;;;;7711374;22;83324;-73
2022/11/30 06:20:10;;;;;;;18.08;11.57;;;22.70;36.50;;;;;;7709373;22;85055;-72
2022/11/30 06:23:11;;;;;;;21.95;11.13;;;22.70;36.30;;;;;;7709997;22;83200;-67
2022/11/30 06:26:11;;;;;;;16.80;11.05;;;22.60;36.50;;;;;;7709452;22;83724;-67
2022/11/30 06:29:12;;;;;;;14.70;10.75;;;22.60;36.60;;;;;;7707592;22;83537;-67
2022/11/30 06:32:12;;;;;;;16.20;11.70;;;22.60;36.60;;;;;;7708476;22;84223;-66
2022/11/30 06:35:13;;;;;;;15.98;11.13;;;22.50;36.40;;;;;;7710559;22;83471;-67
2022/11/30 06:38:13;;;;;;;15.23;11.23;;;22.50;36.60;;;;;;7709940;22;84686;-69
2022/11/30 06:41:14;;;;;;;15.15;10.65;;;22.50;36.60;;;;;;7713045;22;83230;-66
2022/11/30 06:44:14;;;;;;;15.43;11.65;;;22.40;36.50;;;;;;7713355;22;83376;-66
2022/11/30 06:47:15;;;;;;;14.85;11.38;;;22.40;36.60;;;;;;7713774;22;83552;-65
2022/11/30 06:50:15;;;;;;;14.15;10.88;;;22.40;36.70;;;;;;7685966;22;84450;-66
2022/11/30 06:53:16;;;;;;;15.75;10.73;;;22.40;36.70;;;;;;7711929;22;83739;-67
2022/11/30 06:56:16;;;;;;;14.30;10.35;;;22.30;36.60;;;;;;7710690;22;83278;-65
2022/11/30 06:59:17;;;;;;;16.25;9.98;;;22.30;37.00;;;;;;7687089;22;86305;-66
2022/11/30 07:02:17;;;;;;;15.20;11.57;;;22.30;37.10;;;;;;7710845;22;82973;-66
2022/11/30 07:05:17;;;;;;;14.93;11.32;;;22.30;37.20;;;;;;7712587;22;82837;-67
2022/11/30 07:08:18;;;;;;;14.85;10.63;;;22.30;37.20;;;;;;7711257;22;87677;-66
2022/11/30 07:11:18;;;;;;;15.30;10.80;;;22.20;36.90;;;;;;7714173;22;82841;-66
2022/11/30 07:14:19;;;;;;;14.70;10.80;;;22.20;36.70;;;;;;7684893;22;84660;-66
2022/11/30 07:17:19;;;;;;;15.15;10.68;;;22.10;36.50;;;;;;7712641;22;82850;-65
2022/11/30 07:20:20;;;;;;;16.13;11.35;;;22.10;36.40;;;;;;7711910;22;83279;-66
2022/11/30 07:26:40;;;;;;;14.60;10.63;;;22.10;36.40;;;;;;7713156;22;83287;-66
2022/11/30 07:29:40;;;;;;;17.90;11.25;;;22.10;36.40;;;;;;7711950;22;83122;-66
2022/11/30 07:32:41;;;;;;;15.82;11.32;;;22.10;36.40;;;;;;7713229;22;84088;-66
2022/11/30 07:35:41;;;;;;;14.80;10.50;;;22.10;36.40;;;;;;7713481;22;84072;-73
2022/11/30 07:38:42;;;;;;;13.85;10.13;;;22.00;36.40;;;;;;7713305;22;83340;-73
2022/11/30 07:41:42;;;;;;;14.45;10.63;;;22.00;36.50;;;;;;7710554;22;82744;-72
2022/11/30 07:44:43;;;;;;;13.77;10.93;;;22.00;36.50;;;;;;7686642;22;86461;-73
2022/11/30 07:47:43;;;;;;;16.13;11.18;;;22.00;36.50;;;;;;7712282;22;83960;-70
2022/11/30 07:50:44;;;;;;;17.27;10.93;;;21.90;36.40;;;;;;7714142;22;83281;-72
2022/11/30 07:53:45;;;;;;;15.25;10.88;;;21.90;36.50;;;;;;7712477;22;85692;-66
2022/11/30 07:56:45;;;;;;;12.75;10.25;;;21.90;36.50;;;;;;7711868;22;83839;-67
2022/11/30 07:59:46;;;;;;;15.52;11.40;;;21.90;36.50;;;;;;7711966;22;83046;-67
2022/11/30 08:02:46;;;;;;;12.20;9.80;;;21.90;36.50;;;;;;7685121;22;85518;-68
2022/11/30 08:05:46;;;;;;;13.50;10.00;;;21.90;36.60;;;;;;7688269;22;82900;-68
2022/11/30 08:08:47;;;;;;;15.65;10.82;;;21.90;36.80;;;;;;7711186;22;84157;-65
2022/11/30 08:11:47;;;;;;;15.07;10.80;;;21.80;36.80;;;;;;7685560;22;83723;-73
2022/11/30 08:14:48;;;;;;;15.18;10.02;;;21.90;36.80;;;;;;7713406;22;84070;-73
2022/11/30 08:17:53;;;;;;;14.60;11.27;;;21.80;36.80;;;;;;7712974;22;82985;-73
2022/11/30 08:20:53;;;;;;;14.18;10.27;;;21.90;36.90;;;;;;7711902;22;85015;-73
2022/11/30 08:23:55;;;;;;;13.13;9.98;;;21.90;36.90;;;;;;7711774;22;83056;-74
2022/11/30 08:26:55;;;;;;;14.18;10.52;;;21.90;37.20;;;;;;7713525;22;83397;-74
2022/11/30 08:29:56;;;;;;;14.65;10.13;;;21.90;37.20;;;;;;7712833;22;83208;-63
2022/11/30 08:32:56;;;;;;;14.65;10.20;;;21.90;36.80;;;;;;7710900;22;83260;-64
2022/11/30 08:35:57;;;;;;;14.27;10.48;;;22.00;36.50;;;;;;7711493;22;83739;-64
2022/11/30 08:38:57;;;;;;;14.10;10.52;;;22.00;36.30;;;;;;7710023;22;82906;-64
2022/11/30 08:41:58;;;;;;;16.00;11.25;;;22.10;36.10;;;;;;7712891;22;89714;-63
2022/11/30 08:44:58;;;;;;;14.07;10.80;;;22.10;36.00;;;;;;7709744;22;82981;-63
2022/11/30 08:47:59;;;;;;;15.48;10.85;;;22.10;35.50;;;;;;7711342;22;83535;-64
2022/11/30 08:51:00;;;;;;;14.55;10.35;;;22.10;35.40;;;;;;7710749;22;84212;-64
2022/11/30 08:54:00;;;;;;;14.15;10.65;;;22.20;35.40;;;;;;7713158;22;83077;-64
2022/11/30 08:57:00;;;;;;;14.82;10.75;;;22.20;35.40;;;;;;7710298;22;83035;-64
2022/11/30 09:00:01;;;;;;;14.65;10.35;;;22.20;35.20;;;;;;7712294;22;83220;-64
2022/11/30 09:03:01;;;;;;;15.98;10.93;;;22.30;35.20;;;;;;7709385;22;84080;-62
2022/11/30 09:06:02;;;;;;;16.38;10.20;;;22.30;35.30;;;;;;7713372;22;83016;-71
2022/11/30 09:09:02;;;;;;;14.38;11.18;;;22.30;35.40;;;;;;7710868;22;84041;-73
2022/11/30 09:12:03;;;;;;;12.82;10.48;;;22.30;35.30;;;;;;7712938;22;83491;-74
2022/11/30 09:15:03;;;;;;;14.23;11.02;;;22.40;35.30;;;;;;7711740;22;82690;-73
2022/11/30 09:18:04;;;;;;;14.40;10.40;;;22.40;35.30;;;;;;7713300;22;83437;-71
2022/11/30 09:21:04;;;;;;;15.38;10.57;;;22.40;35.20;;;;;;7710957;22;82995;-73
2022/11/30 09:24:05;;;;;;;13.32;10.27;;;22.40;35.10;;;;;;7711874;22;83078;-67
2022/11/30 09:27:05;;;;;;;14.82;10.65;;;22.40;35.10;;;;;;7711355;22;82990;-62
2022/11/30 09:30:06;;;;;;;13.27;10.00;;;22.40;35.10;;;;;;7713360;22;83043;-63
2022/11/30 09:33:06;;;;;;;15.88;10.55;;;22.40;35.10;;;;;;7711879;22;83404;-64
2022/11/30 09:36:07;;;;;;;15.20;11.07;;;22.50;35.10;;;;;;7712253;22;83851;-64
2022/11/30 09:39:07;;;;;;;13.27;10.15;;;22.50;35.00;;;;;;7710712;22;83157;-63
2022/11/30 09:42:07;;;;;;;17.48;10.70;;;22.50;34.90;;;;;;7713447;22;84298;-64
2022/11/30 09:45:08;;;;;;;12.48;9.88;;;22.50;35.00;;;;;;7711880;22;83174;-63
2022/11/30 09:48:08;;;;;;;15.20;10.65;;;22.50;34.90;;;;;;7714897;22;82794;-63
2022/11/30 09:51:09;;;;;;;15.43;10.95;;;22.50;34.90;;;;;;7711763;22;83825;-63
2022/11/30 09:54:09;;;;;;;14.38;10.77;;;22.50;34.90;;;;;;7712290;22;82828;-63
2022/11/30 09:57:10;;;;;;;15.27;10.98;;;22.50;34.80;;;;;;7714542;22;83848;-62
2022/11/30 10:00:11;;;;;;;14.13;10.95;;;22.50;34.90;;;;;;7711871;22;83343;-63
2022/11/30 10:03:14;;;;;;;13.52;11.25;;;22.50;34.90;;;;;;7712984;22;83243;-63
2022/11/30 10:06:15;;;;;;;17.08;10.68;;;22.50;34.80;;;;;;7714437;22;82837;-63
2022/11/30 10:09:15;;;;;;;14.25;10.73;;;22.60;34.90;;;;;;7711526;22;83217;-63
2022/11/30 10:12:16;;;;;;;15.07;11.15;;;22.50;34.80;;;;;;7711772;22;82732;-63
2022/11/30 10:15:16;;;;;;;15.10;11.23;;;22.50;34.80;;;;;;7712802;22;83325;-63
2022/11/30 10:18:17;;;;;;;16.42;11.73;;;22.60;34.70;;;;;;7712436;22;84291;-63
2022/11/30 10:21:17;;;;;;;13.93;10.55;;;22.60;34.70;;;;;;7684698;22;84408;-67
2022/11/30 10:24:18;;;;;;;14.23;10.38;;;22.60;34.70;;;;;;7711158;22;84069;-67
2022/11/30 10:27:18;;;;;;;13.27;10.38;;;22.60;34.70;;;;;;7712485;22;83052;-67
2022/11/30 10:30:21;;;;;;;14.75;10.85;;;22.60;34.60;;;;;;7714114;22;83456;-68
2022/11/30 10:33:21;;;;;;;14.23;10.95;;;22.60;34.70;;;;;;7712554;22;83141;-64
2022/11/30 10:36:22;;;;;;;16.52;12.02;;;22.60;34.60;;;;;;7713186;22;83917;-67
2022/11/30 10:39:22;;;;;;;15.05;11.10;;;22.60;34.60;;;;;;7711748;22;83582;-67
2022/11/30 10:42:23;;;;;;;16.10;10.95;;;22.60;34.50;;;;;;7712311;22;83726;-67
2022/11/30 10:45:23;;;;;;;15.13;10.80;;;22.60;34.60;;;;;;7713528;22;83107;-67
2022/11/30 10:48:24;;;;;;;14.73;10.60;;;22.60;34.60;;;;;;7711508;22;82896;-67
2022/11/30 10:51:24;;;;;;;16.15;11.73;;;22.60;34.70;;;;;;7712466;22;83268;-67
2022/11/30 10:54:24;;;;;;;15.18;11.50;;;22.60;34.80;;;;;;7712780;22;83723;-66
2022/11/30 10:57:25;;;;;;;16.25;12.13;;;22.60;34.70;;;;;;7712813;22;83624;-63
2022/11/30 11:00:25;;;;;;;15.35;11.15;;;22.60;34.60;;;;;;7713023;22;83209;-63
2022/11/30 11:03:26;;;;;;;14.45;10.65;;;22.60;34.70;;;;;;7711711;22;83011;-63
2022/11/30 11:06:26;;;;;;;14.85;10.75;;;22.60;34.50;;;;;;7710949;22;83355;-63
2022/11/30 11:09:27;;;;;;;15.27;11.40;;;22.60;34.50;;;;;;7713605;22;83271;-63
2022/11/30 11:12:29;;;;;;;15.90;11.32;;;22.60;34.60;;;;;;7711659;22;83268;-62
2022/11/30 11:15:30;;;;;;;14.40;10.75;;;22.70;34.70;;;;;;7711655;22;83094;-65
2022/11/30 11:18:30;;;;;;;15.02;11.30;;;22.70;34.60;;;;;;7713185;22;83490;-66
2022/11/30 11:21:31;;;;;;;16.25;11.80;;;22.60;34.60;;;;;;7713134;22;83508;-66
2022/11/30 11:24:31;;;;;;;14.60;11.35;;;22.60;34.50;;;;;;7711860;22;83011;-67
2022/11/30 11:27:32;;;;;;;18.70;12.75;;;22.60;34.50;;;;;;7711998;22;83072;-66
2022/11/30 11:30:32;;;;;;;15.48;11.75;;;22.70;34.60;;;;;;7711788;22;84243;-66
2022/11/30 11:33:33;;;;;;;15.70;12.25;;;22.70;34.60;;;;;;7686549;22;84138;-65
2022/11/30 11:36:35;;;;;;;16.00;12.88;;;22.70;34.60;;;;;;7712815;22;83088;-66
2022/11/30 11:39:36;;;;;;;15.07;11.82;;;22.60;34.50;;;;;;7684522;22;84189;-66
2022/11/30 11:42:37;;;;;;;14.60;11.73;;;22.70;34.50;;;;;;7712222;22;83022;-67
2022/11/30 11:45:37;;;;;;;14.98;12.05;;;22.70;34.60;;;;;;7687378;22;84280;-68
2022/11/30 11:48:38;;;;;;;14.55;12.02;;;22.70;34.50;;;;;;7711100;22;85162;-67
2022/11/30 11:51:38;;;;;;;16.13;11.93;;;22.70;34.60;;;;;;7712466;22;83095;-74
2022/11/30 11:54:39;;;;;;;14.38;11.80;;;22.70;34.40;;;;;;7713950;22;84007;-75
2022/11/30 11:57:39;;;;;;;15.55;12.15;;;22.70;34.40;;;;;;7714801;22;82827;-75
2022/11/30 12:00:40;;;;;;;17.05;12.90;;;22.60;34.20;;;;;;7711308;22;83366;-74
2022/11/30 12:03:40;;;;;;;14.60;12.23;;;22.60;34.30;;;;;;7711539;22;82933;-74
2022/11/30 12:06:41;;;;;;;15.27;11.93;;;22.60;34.20;;;;;;7714383;22;83134;-75
2022/11/30 12:09:41;;;;;;;17.40;12.35;;;22.60;34.20;;;;;;7712651;22;82799;-66
2022/11/30 12:12:42;;;;;;;17.10;12.32;;;22.60;34.20;;;;;;7711884;22;83462;-66
2022/11/30 12:15:42;;;;;;;15.45;11.60;;;22.60;34.20;;;;;;7710974;22;84113;-67
2022/11/30 12:18:43;;;;;;;15.60;12.25;;;22.60;34.50;;;;;;7711565;22;83159;-66
2022/11/30 12:21:43;;;;;;;15.98;11.88;;;22.60;34.40;;;;;;7712511;22;83408;-67
2022/11/30 12:24:44;;;;;;;14.90;11.70;;;22.50;34.40;;;;;;7711274;22;84299;-67
2022/11/30 12:27:47;;;;;;;14.57;11.48;;;22.50;34.50;;;;;;7711637;22;83511;-67
2022/11/30 12:30:48;;;;;;;14.73;11.35;;;22.50;34.50;;;;;;7685450;22;84756;-66
2022/11/30 12:33:48;;;;;;;15.50;11.77;;;22.50;34.60;;;;;;7711068;22;83440;-66
2022/11/30 12:36:49;;;;;;;12.95;10.43;;;22.40;34.60;;;;;;7713814;22;83619;-68
2022/11/30 12:39:49;;;;;;;14.27;10.38;;;22.40;34.50;;;;;;7712069;22;82980;-66
2022/11/30 12:42:50;;;;;;;12.98;10.95;;;22.40;34.60;;;;;;7710861;22;85235;-67
2022/11/30 12:45:50;;;;;;;16.40;11.57;;;22.30;34.50;;;;;;7711915;22;83812;-66
2022/11/30 12:48:51;;;;;;;15.40;11.88;;;22.30;34.70;;;;;;7712580;22;83165;-64
2022/11/30 12:51:51;;;;;;;12.80;10.27;;;22.30;34.80;;;;;;7712372;22;83218;-63
2022/11/30 12:54:51;;;;;;;13.45;11.25;;;22.30;34.90;;;;;;7711264;22;83146;-64
2022/11/30 12:57:52;;;;;;;15.77;11.35;;;22.30;35.00;;;;;;7712671;22;83412;-63
2022/11/30 13:00:53;;;;;;;12.70;10.63;;;22.30;35.10;;;;;;7713437;22;83324;-64
2022/11/30 13:03:53;;;;;;;13.98;11.45;;;22.20;35.10;;;;;;7710875;22;83143;-63
2022/11/30 13:06:54;;;;;;;16.70;11.45;;;22.20;34.90;;;;;;7711541;22;83352;-64
2022/11/30 13:09:55;;;;;;;13.98;11.20;;;22.20;35.00;;;;;;7684831;22;83145;-65
2022/11/30 13:12:55;;;;;;;15.25;11.75;;;22.10;35.10;;;;;;7712957;22;83004;-67
2022/11/30 13:15:56;;;;;;;14.25;11.82;;;22.10;35.00;;;;;;7711077;22;84200;-66
2022/11/30 13:18:57;;;;;;;14.88;11.43;;;22.10;34.90;;;;;;7683925;22;83806;-65
2022/11/30 13:21:58;;;;;;;14.30;11.57;;;22.10;34.80;;;;;;7710483;22;83753;-65
2022/11/30 13:24:58;;;;;;;14.40;11.68;;;22.10;34.80;;;;;;7713713;22;82913;-73
2022/11/30 13:27:59;;;;;;;15.55;12.20;;;22.10;34.80;;;;;;7711062;22;83233;-72
2022/11/30 13:30:59;;;;;;;15.43;12.30;;;22.10;34.90;;;;;;7685234;22;83240;-72
2022/11/30 13:34:00;;;;;;;16.15;12.70;;;22.00;35.40;;;;;;7713783;22;84694;-72
2022/11/30 13:37:00;;;;;;;16.42;12.95;;;22.00;34.90;;;;;;7713001;22;83092;-72
2022/11/30 13:40:01;;;;;;;15.60;12.88;;;22.00;35.00;;;;;;7685438;22;85278;-73
2022/11/30 13:43:01;;;;;;;16.77;12.85;;;22.00;35.10;;;;;;7712703;22;82946;-73
2022/11/30 13:46:02;;;;;;;16.17;12.35;;;21.90;35.10;;;;;;7713536;22;84532;-74
2022/11/30 13:49:02;;;;;;;15.18;12.38;;;21.90;35.10;;;;;;7714196;22;84249;-74
2022/11/30 13:52:03;;;;;;;14.82;11.68;;;22.00;35.40;;;;;;7714595;22;84918;-74
2022/11/30 13:55:03;;;;;;;15.43;12.13;;;22.00;35.70;;;;;;7713184;22;83049;-75
2022/11/30 13:58:04;;;;;;;16.40;12.88;;;22.00;35.60;;;;;;7713710;22;83270;-73
2022/11/30 14:01:04;;;;;;;17.05;12.90;;;22.00;35.50;;;;;;7715484;22;83373;-64
2022/11/30 14:04:05;;;;;;;17.52;13.48;;;22.00;35.20;;;;;;7711685;22;83181;-64
2022/11/30 14:07:10;;;;;;;18.33;15.20;;;22.10;35.00;;;;;;7712937;22;83610;-65
2022/11/30 14:10:10;;;;;;;18.80;15.02;;;22.10;34.60;;;;;;7712389;22;83209;-64
2022/11/30 14:13:12;;;;;;;18.00;13.80;;;22.10;34.60;;;;;;7714740;22;83127;-65
2022/11/30 14:16:12;;;;;;;21.83;15.15;;;22.10;34.40;;;;;;7714284;22;83413;-64
2022/11/30 14:19:13;;;;;;;19.27;15.23;;;22.20;34.40;;;;;;7712406;22;84663;-64
2022/11/30 14:22:13;;;;;;;17.88;14.13;;;22.20;34.40;;;;;;7711883;22;83007;-61
2022/11/30 14:25:14;;;;;;;19.73;15.43;;;22.30;34.10;;;;;;7714962;22;83453;-63
2022/11/30 14:28:15;;;;;;;18.90;14.98;;;22.30;34.30;;;;;;7711012;22;82818;-63
2022/11/30 14:31:15;;;;;;;19.65;14.45;;;22.30;34.20;;;;;;7711791;22;83788;-64
2022/11/30 14:34:16;;;;;;;17.60;14.73;;;22.30;34.20;;;;;;7713297;22;83147;-63
2022/11/30 14:37:16;;;;;;;19.05;14.65;;;22.30;34.40;;;;;;7713256;22;83221;-64
2022/11/30 14:40:17;;;;;;;18.65;14.88;;;22.40;34.30;;;;;;7713883;22;82656;-63
2022/11/30 14:43:17;;;;;;;19.83;15.52;;;22.40;34.20;;;;;;7712106;22;83621;-64
2022/11/30 14:46:17;;;;;;;18.23;14.23;;;22.40;34.30;;;;;;7713649;22;83302;-64
2022/11/30 14:49:18;;;;;;;19.15;14.38;;;22.40;34.30;;;;;;7660918;22;84727;-64
2022/11/30 14:52:18;;;;;;;18.20;14.35;;;22.40;34.30;;;;;;7713856;22;83071;-63
2022/11/30 14:55:19;;;;;;;20.20;14.65;;;22.40;34.10;;;;;;7711434;22;84195;-64
2022/11/30 14:58:19;;;;;;;18.38;13.77;;;22.40;34.20;;;;;;7711853;22;83550;-61
2022/11/30 15:01:20;;;;;;;20.50;14.93;;;22.50;34.20;;;;;;7711271;22;84437;-63
2022/11/30 15:04:20;;;;;;;21.50;16.35;;;22.40;34.20;;;;;;7709666;22;83872;-67
2022/11/30 15:07:21;;;;;;;21.42;15.40;;;22.50;34.20;;;;;;7708348;22;83511;-59
2022/11/30 15:10:22;;;;;;;20.48;15.90;;;22.50;34.20;;;;;;7708426;22;85124;-63
2022/11/30 15:13:22;;;;;;;23.70;16.25;;;22.50;34.20;;;;;;7680389;22;83565;-64
2022/11/30 15:16:23;;;;;;;21.05;16.02;;;22.50;34.20;;;;;;7712206;22;84917;-61
2022/11/30 15:19:23;;;;;;;20.30;16.02;;;22.60;34.40;;;;;;7710679;22;83022;-65
2022/11/30 15:22:24;;;;;;;19.45;15.32;;;22.70;34.30;;;;;;7704182;22;83054;-64
2022/11/30 15:25:25;;;;;;;21.65;16.48;;;22.70;34.30;;;;;;7709863;22;83322;-64